sensor_id;sensor_type;location;lat;lon;timestamp;P1;durP1;ratioP1;P2;durP2;ratioP2
51664;SDS011;37751;52.408;12.536;2022-11-15T00:01:42;42.43;;;24.93;;
51664;SDS011;37751;52.408;12.536;2022-11-15T00:04:27;44.23;;;26.20;;
51664;SDS011;37751;52.408;12.536;2022-11-15T00:07:13;41.73;;;25.77;;
51664;SDS011;37751;52.408;12.536;2022-11-15T00:10:18;43.90;;;25.07;;
51664;SDS011;37751;52.408;12.536;2022-11-15T00:13:04;47.63;;;26.80;;
51664;SDS011;37751;52.408;12.536;2022-11-15T00:15:57;46.43;;;25.33;;
51664;SDS011;37751;52.408;12.536;2022-11-15T00:18:44;46.63;;;26.77;;
51664;SDS011;37751;52.408;12.536;2022-11-15T00:21:34;40.97;;;24.83;;
51664;SDS011;37751;52.408;12.536;2022-11-15T00:24:20;46.43;;;25.03;;
51664;SDS011;37751;52.408;12.536;2022-11-15T00:27:05;39.13;;;24.00;;
51664;SDS011;37751;52.408;12.536;2022-11-15T00:29:52;41.80;;;24.20;;
51664;SDS011;37751;52.408;12.536;2022-11-15T00:32:37;43.90;;;24.77;;
51664;SDS011;37751;52.408;12.536;2022-11-15T00:35:23;44.63;;;25.03;;
51664;SDS011;37751;52.408;12.536;2022-11-15T00:38:08;42.83;;;25.97;;
51664;SDS011;37751;52.408;12.536;2022-11-15T00:40:54;40.33;;;24.67;;
51664;SDS011;37751;52.408;12.536;2022-11-15T00:43:39;44.53;;;24.07;;
51664;SDS011;37751;52.408;12.536;2022-11-15T00:46:27;45.33;;;24.57;;
51664;SDS011;37751;52.408;12.536;2022-11-15T00:49:12;43.30;;;25.03;;
51664;SDS011;37751;52.408;12.536;2022-11-15T00:51:57;47.17;;;25.07;;
51664;SDS011;37751;52.408;12.536;2022-11-15T00:54:43;41.57;;;23.90;;
51664;SDS011;37751;52.408;12.536;2022-11-15T00:57:28;42.17;;;25.13;;
51664;SDS011;37751;52.408;12.536;2022-11-15T01:00:13;43.37;;;25.57;;
51664;SDS011;37751;52.408;12.536;2022-11-15T01:02:59;39.57;;;23.17;;
51664;SDS011;37751;52.408;12.536;2022-11-15T01:05:46;44.43;;;24.23;;
51664;SDS011;37751;52.408;12.536;2022-11-15T01:08:31;39.30;;;23.30;;
51664;SDS011;37751;52.408;12.536;2022-11-15T01:11:17;42.23;;;23.20;;
51664;SDS011;37751;52.408;12.536;2022-11-15T01:14:02;42.33;;;23.57;;
51664;SDS011;37751;52.408;12.536;2022-11-15T01:16:48;42.10;;;23.80;;
51664;SDS011;37751;52.408;12.536;2022-11-15T01:19:33;42.87;;;24.80;;
51664;SDS011;37751;52.408;12.536;2022-11-15T01:22:18;38.80;;;21.40;;
51664;SDS011;37751;52.408;12.536;2022-11-15T01:25:04;38.20;;;21.87;;
51664;SDS011;37751;52.408;12.536;2022-11-15T01:27:49;41.23;;;23.03;;
51664;SDS011;37751;52.408;12.536;2022-11-15T01:30:35;33.57;;;21.60;;
51664;SDS011;37751;52.408;12.536;2022-11-15T01:33:21;35.93;;;21.33;;
51664;SDS011;37751;52.408;12.536;2022-11-15T01:36:16;37.77;;;21.80;;
51664;SDS011;37751;52.408;12.536;2022-11-15T01:39:07;41.80;;;21.47;;
51664;SDS011;37751;52.408;12.536;2022-11-15T01:41:53;42.70;;;21.93;;
51664;SDS011;37751;52.408;12.536;2022-11-15T01:47:40;43.33;;;22.03;;
51664;SDS011;37751;52.408;12.536;2022-11-15T01:50:31;39.77;;;22.47;;
51664;SDS011;37751;52.408;12.536;2022-11-15T01:53:18;39.23;;;21.23;;
51664;SDS011;37751;52.408;12.536;2022-11-15T01:56:07;38.67;;;21.33;;
51664;SDS011;37751;52.408;12.536;2022-11-15T01:58:55;38.17;;;21.87;;
51664;SDS011;37751;52.408;12.536;2022-11-15T02:01:43;32.13;;;19.73;;
51664;SDS011;37751;52.408;12.536;2022-11-15T02:04:29;38.73;;;21.30;;
51664;SDS011;37751;52.408;12.536;2022-11-15T02:07:19;36.63;;;20.97;;
51664;SDS011;37751;52.408;12.536;2022-11-15T02:10:08;36.03;;;20.77;;
51664;SDS011;37751;52.408;12.536;2022-11-15T02:12:57;36.73;;;19.77;;
51664;SDS011;37751;52.408;12.536;2022-11-15T02:15:51;35.10;;;19.33;;
51664;SDS011;37751;52.408;12.536;2022-11-15T02:22:39;30.77;;;19.17;;
51664;SDS011;37751;52.408;12.536;2022-11-15T02:32:58;30.60;;;18.27;;
51664;SDS011;37751;52.408;12.536;2022-11-15T02:42:13;29.07;;;17.23;;
51664;SDS011;37751;52.408;12.536;2022-11-15T02:45:28;31.63;;;19.03;;
51664;SDS011;37751;52.408;12.536;2022-11-15T02:48:18;35.83;;;17.60;;
51664;SDS011;37751;52.408;12.536;2022-11-15T02:51:05;31.53;;;18.90;;
51664;SDS011;37751;52.408;12.536;2022-11-15T02:53:51;31.60;;;18.33;;
51664;SDS011;37751;52.408;12.536;2022-11-15T02:56:37;34.27;;;19.17;;
51664;SDS011;37751;52.408;12.536;2022-11-15T03:12:12;28.10;;;16.53;;
51664;SDS011;37751;52.408;12.536;2022-11-15T03:18:19;31.50;;;17.10;;
51664;SDS011;37751;52.408;12.536;2022-11-15T03:21:18;34.77;;;19.47;;
51664;SDS011;37751;52.408;12.536;2022-11-15T03:24:07;36.17;;;17.63;;
51664;SDS011;37751;52.408;12.536;2022-11-15T03:26:53;27.40;;;16.43;;
51664;SDS011;37751;52.408;12.536;2022-11-15T03:29:43;29.63;;;16.70;;
51664;SDS011;37751;52.408;12.536;2022-11-15T03:32:38;31.10;;;16.77;;
51664;SDS011;37751;52.408;12.536;2022-11-15T03:35:33;32.40;;;17.33;;
51664;SDS011;37751;52.408;12.536;2022-11-15T03:38:27;29.10;;;17.77;;
51664;SDS011;37751;52.408;12.536;2022-11-15T03:41:22;30.93;;;17.43;;
51664;SDS011;37751;52.408;12.536;2022-11-15T03:47:30;32.97;;;17.23;;
51664;SDS011;37751;52.408;12.536;2022-11-15T03:50:24;32.60;;;17.83;;
51664;SDS011;37751;52.408;12.536;2022-11-15T03:53:10;33.00;;;18.40;;
51664;SDS011;37751;52.408;12.536;2022-11-15T03:55:56;31.10;;;18.43;;
51664;SDS011;37751;52.408;12.536;2022-11-15T03:58:42;29.20;;;17.20;;
51664;SDS011;37751;52.408;12.536;2022-11-15T04:01:28;35.97;;;18.80;;
51664;SDS011;37751;52.408;12.536;2022-11-15T04:04:13;30.20;;;17.10;;
51664;SDS011;37751;52.408;12.536;2022-11-15T04:06:59;28.87;;;16.90;;
51664;SDS011;37751;52.408;12.536;2022-11-15T04:09:44;31.70;;;18.33;;
51664;SDS011;37751;52.408;12.536;2022-11-15T04:12:47;30.27;;;17.53;;
51664;SDS011;37751;52.408;12.536;2022-11-15T04:15:33;34.27;;;18.87;;
51664;SDS011;37751;52.408;12.536;2022-11-15T04:18:18;31.07;;;18.83;;
51664;SDS011;37751;52.408;12.536;2022-11-15T04:21:04;31.63;;;18.00;;
51664;SDS011;37751;52.408;12.536;2022-11-15T04:24:08;30.63;;;18.50;;
51664;SDS011;37751;52.408;12.536;2022-11-15T04:26:59;29.57;;;17.13;;
51664;SDS011;37751;52.408;12.536;2022-11-15T04:29:45;30.93;;;16.83;;
51664;SDS011;37751;52.408;12.536;2022-11-15T04:32:30;28.80;;;16.27;;
51664;SDS011;37751;52.408;12.536;2022-11-15T04:35:15;30.37;;;17.87;;
51664;SDS011;37751;52.408;12.536;2022-11-15T04:38:01;31.23;;;17.03;;
51664;SDS011;37751;52.408;12.536;2022-11-15T04:40:49;34.13;;;17.77;;
51664;SDS011;37751;52.408;12.536;2022-11-15T04:43:34;31.47;;;18.07;;
51664;SDS011;37751;52.408;12.536;2022-11-15T04:46:20;31.13;;;18.30;;
51664;SDS011;37751;52.408;12.536;2022-11-15T04:49:07;35.23;;;20.07;;
51664;SDS011;37751;52.408;12.536;2022-11-15T04:51:52;42.93;;;19.90;;
51664;SDS011;37751;52.408;12.536;2022-11-15T04:54:38;35.50;;;19.47;;
51664;SDS011;37751;52.408;12.536;2022-11-15T04:57:23;32.17;;;18.10;;
51664;SDS011;37751;52.408;12.536;2022-11-15T05:00:10;34.47;;;19.63;;
51664;SDS011;37751;52.408;12.536;2022-11-15T05:02:59;30.67;;;18.43;;
51664;SDS011;37751;52.408;12.536;2022-11-15T05:06:03;35.90;;;18.77;;
51664;SDS011;37751;52.408;12.536;2022-11-15T05:08:48;33.43;;;19.43;;
51664;SDS011;37751;52.408;12.536;2022-11-15T05:11:33;35.47;;;17.43;;
51664;SDS011;37751;52.408;12.536;2022-11-15T05:14:19;35.60;;;19.17;;
51664;SDS011;37751;52.408;12.536;2022-11-15T05:17:04;34.20;;;18.63;;
51664;SDS011;37751;52.408;12.536;2022-11-15T05:19:50;35.50;;;18.43;;
51664;SDS011;37751;52.408;12.536;2022-11-15T05:22:36;31.40;;;17.23;;
51664;SDS011;37751;52.408;12.536;2022-11-15T05:25:22;34.50;;;18.17;;
51664;SDS011;37751;52.408;12.536;2022-11-15T05:28:08;30.70;;;16.50;;
51664;SDS011;37751;52.408;12.536;2022-11-15T05:30:53;39.13;;;18.37;;
51664;SDS011;37751;52.408;12.536;2022-11-15T05:33:50;30.03;;;17.43;;
51664;SDS011;37751;52.408;12.536;2022-11-15T05:36:37;30.93;;;17.67;;
51664;SDS011;37751;52.408;12.536;2022-11-15T05:39:26;32.23;;;17.20;;
51664;SDS011;37751;52.408;12.536;2022-11-15T05:42:13;31.00;;;16.90;;
51664;SDS011;37751;52.408;12.536;2022-11-15T05:44:59;35.33;;;17.77;;
51664;SDS011;37751;52.408;12.536;2022-11-15T05:47:50;29.60;;;16.23;;
51664;SDS011;37751;52.408;12.536;2022-11-15T05:50:38;31.67;;;16.10;;
51664;SDS011;37751;52.408;12.536;2022-11-15T05:53:28;32.00;;;17.23;;
51664;SDS011;37751;52.408;12.536;2022-11-15T05:56:15;29.83;;;17.10;;
51664;SDS011;37751;52.408;12.536;2022-11-15T05:59:00;27.70;;;15.47;;
51664;SDS011;37751;52.408;12.536;2022-11-15T06:01:47;26.80;;;15.70;;
51664;SDS011;37751;52.408;12.536;2022-11-15T06:04:32;27.83;;;16.00;;
51664;SDS011;37751;52.408;12.536;2022-11-15T06:07:18;26.53;;;15.70;;
51664;SDS011;37751;52.408;12.536;2022-11-15T06:10:03;26.87;;;15.90;;
51664;SDS011;37751;52.408;12.536;2022-11-15T06:12:56;30.40;;;16.27;;
51664;SDS011;37751;52.408;12.536;2022-11-15T06:15:49;34.40;;;17.47;;
51664;SDS011;37751;52.408;12.536;2022-11-15T06:18:34;31.43;;;17.83;;
51664;SDS011;37751;52.408;12.536;2022-11-15T06:21:21;31.10;;;17.37;;
51664;SDS011;37751;52.408;12.536;2022-11-15T06:24:07;29.27;;;16.13;;
51664;SDS011;37751;52.408;12.536;2022-11-15T06:26:52;32.03;;;16.43;;
51664;SDS011;37751;52.408;12.536;2022-11-15T06:29:38;29.10;;;15.77;;
51664;SDS011;37751;52.408;12.536;2022-11-15T06:32:23;33.37;;;18.57;;
51664;SDS011;37751;52.408;12.536;2022-11-15T06:35:09;26.73;;;16.80;;
51664;SDS011;37751;52.408;12.536;2022-11-15T06:37:54;32.13;;;17.83;;
51664;SDS011;37751;52.408;12.536;2022-11-15T06:40:40;32.43;;;16.87;;
51664;SDS011;37751;52.408;12.536;2022-11-15T06:43:26;35.67;;;17.23;;
51664;SDS011;37751;52.408;12.536;2022-11-15T06:46:11;32.93;;;17.43;;
51664;SDS011;37751;52.408;12.536;2022-11-15T06:48:57;27.43;;;16.30;;
51664;SDS011;37751;52.408;12.536;2022-11-15T06:51:42;28.63;;;16.53;;
51664;SDS011;37751;52.408;12.536;2022-11-15T06:54:28;32.33;;;17.63;;
51664;SDS011;37751;52.408;12.536;2022-11-15T06:57:13;32.30;;;17.17;;
51664;SDS011;37751;52.408;12.536;2022-11-15T06:59:59;30.87;;;17.17;;
51664;SDS011;37751;52.408;12.536;2022-11-15T07:02:44;28.70;;;16.50;;
51664;SDS011;37751;52.408;12.536;2022-11-15T07:05:29;30.87;;;17.20;;
51664;SDS011;37751;52.408;12.536;2022-11-15T07:08:15;29.90;;;17.23;;
51664;SDS011;37751;52.408;12.536;2022-11-15T07:11:01;32.07;;;16.87;;
51664;SDS011;37751;52.408;12.536;2022-11-15T07:13:49;32.33;;;17.00;;
51664;SDS011;37751;52.408;12.536;2022-11-15T07:16:35;31.73;;;17.23;;
51664;SDS011;37751;52.408;12.536;2022-11-15T07:19:22;64.90;;;20.40;;
51664;SDS011;37751;52.408;12.536;2022-11-15T07:22:07;45.77;;;18.20;;
51664;SDS011;37751;52.408;12.536;2022-11-15T07:24:53;46.30;;;17.50;;
51664;SDS011;37751;52.408;12.536;2022-11-15T07:27:38;42.43;;;16.60;;
51664;SDS011;37751;52.408;12.536;2022-11-15T07:30:24;31.80;;;16.20;;
51664;SDS011;37751;52.408;12.536;2022-11-15T07:33:11;37.70;;;16.30;;
51664;SDS011;37751;52.408;12.536;2022-11-15T07:36:00;34.97;;;16.77;;
51664;SDS011;37751;52.408;12.536;2022-11-15T07:38:50;33.43;;;16.97;;
51664;SDS011;37751;52.408;12.536;2022-11-15T07:41:36;35.33;;;16.93;;
51664;SDS011;37751;52.408;12.536;2022-11-15T07:44:21;34.10;;;16.17;;
51664;SDS011;37751;52.408;12.536;2022-11-15T07:47:06;35.17;;;18.00;;
51664;SDS011;37751;52.408;12.536;2022-11-15T07:49:52;28.90;;;15.50;;
51664;SDS011;37751;52.408;12.536;2022-11-15T07:52:37;32.50;;;18.03;;
51664;SDS011;37751;52.408;12.536;2022-11-15T07:55:23;32.57;;;15.90;;
51664;SDS011;37751;52.408;12.536;2022-11-15T07:58:10;32.27;;;16.43;;
51664;SDS011;37751;52.408;12.536;2022-11-15T08:00:56;29.67;;;15.40;;
51664;SDS011;37751;52.408;12.536;2022-11-15T08:03:41;26.90;;;15.53;;
51664;SDS011;37751;52.408;12.536;2022-11-15T08:06:27;32.47;;;17.17;;
51664;SDS011;37751;52.408;12.536;2022-11-15T08:09:12;26.43;;;15.47;;
51664;SDS011;37751;52.408;12.536;2022-11-15T08:11:58;26.00;;;15.93;;
51664;SDS011;37751;52.408;12.536;2022-11-15T08:14:43;25.97;;;15.03;;
51664;SDS011;37751;52.408;12.536;2022-11-15T08:17:28;28.53;;;15.30;;
51664;SDS011;37751;52.408;12.536;2022-11-15T08:20:17;29.40;;;16.50;;
51664;SDS011;37751;52.408;12.536;2022-11-15T08:23:04;29.60;;;15.43;;
51664;SDS011;37751;52.408;12.536;2022-11-15T08:25:50;34.77;;;15.80;;
51664;SDS011;37751;52.408;12.536;2022-11-15T08:28:36;59.37;;;17.47;;
51664;SDS011;37751;52.408;12.536;2022-11-15T08:31:21;43.50;;;16.23;;
51664;SDS011;37751;52.408;12.536;2022-11-15T08:34:07;43.80;;;16.30;;
51664;SDS011;37751;52.408;12.536;2022-11-15T08:36:53;27.48;;;14.60;;
51664;SDS011;37751;52.408;12.536;2022-11-15T08:39:38;38.25;;;13.43;;
51664;SDS011;37751;52.408;12.536;2022-11-15T08:42:23;26.90;;;14.17;;
51664;SDS011;37751;52.408;12.536;2022-11-15T08:45:09;25.92;;;14.02;;
51664;SDS011;37751;52.408;12.536;2022-11-15T08:47:54;24.27;;;13.20;;
51664;SDS011;37751;52.408;12.536;2022-11-15T08:50:40;23.98;;;14.23;;
51664;SDS011;37751;52.408;12.536;2022-11-15T08:53:25;23.05;;;14.48;;
51664;SDS011;37751;52.408;12.536;2022-11-15T08:56:11;32.65;;;15.30;;
51664;SDS011;37751;52.408;12.536;2022-11-15T08:58:58;28.20;;;13.63;;
51664;SDS011;37751;52.408;12.536;2022-11-15T09:01:44;36.38;;;13.50;;
51664;SDS011;37751;52.408;12.536;2022-11-15T09:04:29;39.88;;;16.10;;
51664;SDS011;37751;52.408;12.536;2022-11-15T09:07:15;49.67;;;13.10;;
51664;SDS011;37751;52.408;12.536;2022-11-15T09:10:01;29.58;;;13.18;;
51664;SDS011;37751;52.408;12.536;2022-11-15T09:12:46;31.67;;;13.10;;
51664;SDS011;37751;52.408;12.536;2022-11-15T09:15:33;26.23;;;13.55;;
51664;SDS011;37751;52.408;12.536;2022-11-15T09:18:18;18.25;;;11.57;;
51664;SDS011;37751;52.408;12.536;2022-11-15T09:21:07;35.67;;;14.07;;
51664;SDS011;37751;52.408;12.536;2022-11-15T09:23:53;47.25;;;13.38;;
51664;SDS011;37751;52.408;12.536;2022-11-15T09:26:39;34.22;;;14.00;;
51664;SDS011;37751;52.408;12.536;2022-11-15T09:29:25;31.20;;;12.73;;
51664;SDS011;37751;52.408;12.536;2022-11-15T09:32:11;31.40;;;13.00;;
51664;SDS011;37751;52.408;12.536;2022-11-15T09:34:57;23.77;;;11.98;;
51664;SDS011;37751;52.408;12.536;2022-11-15T09:37:43;29.55;;;11.15;;
51664;SDS011;37751;52.408;12.536;2022-11-15T09:40:30;19.00;;;10.68;;
51664;SDS011;37751;52.408;12.536;2022-11-15T09:49:58;16.80;;;10.50;;
51664;SDS011;37751;52.408;12.536;2022-11-15T09:52:32;22.65;;;10.82;;
51664;SDS011;37751;52.408;12.536;2022-11-15T09:55:01;17.60;;;10.55;;
51664;SDS011;37751;52.408;12.536;2022-11-15T09:57:45;19.98;;;10.30;;
51664;SDS011;37751;52.408;12.536;2022-11-15T10:00:29;21.08;;;10.45;;
51664;SDS011;37751;52.408;12.536;2022-11-15T10:06:05;27.02;;;9.77;;
51664;SDS011;37751;52.408;12.536;2022-11-15T10:11:32;25.85;;;9.73;;
51664;SDS011;37751;52.408;12.536;2022-11-15T10:14:15;19.35;;;9.98;;
51664;SDS011;37751;52.408;12.536;2022-11-15T10:19:38;21.70;;;9.52;;
51664;SDS011;37751;52.408;12.536;2022-11-15T10:22:40;21.67;;;10.07;;
51664;SDS011;37751;52.408;12.536;2022-11-15T10:27:45;14.93;;;9.45;;
51664;SDS011;37751;52.408;12.536;2022-11-15T10:30:19;12.43;;;9.25;;
51664;SDS011;37751;52.408;12.536;2022-11-15T10:32:47;13.88;;;8.80;;
51664;SDS011;37751;52.408;12.536;2022-11-15T10:35:20;13.00;;;8.65;;
51664;SDS011;37751;52.408;12.536;2022-11-15T10:37:50;15.57;;;8.25;;
51664;SDS011;37751;52.408;12.536;2022-11-15T10:40:21;14.73;;;8.90;;
51664;SDS011;37751;52.408;12.536;2022-11-15T10:43:04;14.80;;;9.05;;
51664;SDS011;37751;52.408;12.536;2022-11-15T10:45:42;15.65;;;8.95;;
51664;SDS011;37751;52.408;12.536;2022-11-15T10:50:40;12.52;;;8.23;;
51664;SDS011;37751;52.408;12.536;2022-11-15T10:55:51;14.43;;;8.70;;
51664;SDS011;37751;52.408;12.536;2022-11-15T10:58:38;20.80;;;8.38;;
51664;SDS011;37751;52.408;12.536;2022-11-15T11:01:25;14.65;;;8.10;;
51664;SDS011;37751;52.408;12.536;2022-11-15T11:04:00;10.93;;;7.25;;
51664;SDS011;37751;52.408;12.536;2022-11-15T11:06:52;13.80;;;7.70;;
51664;SDS011;37751;52.408;12.536;2022-11-15T11:09:35;11.60;;;7.97;;
51664;SDS011;37751;52.408;12.536;2022-11-15T11:12:11;13.95;;;7.85;;
51664;SDS011;37751;52.408;12.536;2022-11-15T11:14:38;15.38;;;7.90;;
51664;SDS011;37751;52.408;12.536;2022-11-15T11:17:23;11.73;;;7.57;;
51664;SDS011;37751;52.408;12.536;2022-11-15T11:25:36;11.15;;;7.40;;
51664;SDS011;37751;52.408;12.536;2022-11-15T11:31:31;14.55;;;7.30;;
51664;SDS011;37751;52.408;12.536;2022-11-15T11:43:14;11.25;;;7.72;;
51664;SDS011;37751;52.408;12.536;2022-11-15T11:48:58;13.40;;;7.78;;
51664;SDS011;37751;52.408;12.536;2022-11-15T11:51:36;12.50;;;7.32;;
51664;SDS011;37751;52.408;12.536;2022-11-15T11:54:20;9.98;;;7.50;;
51664;SDS011;37751;52.408;12.536;2022-11-15T11:56:57;10.05;;;6.65;;
51664;SDS011;37751;52.408;12.536;2022-11-15T12:02:31;14.13;;;6.45;;
51664;SDS011;37751;52.408;12.536;2022-11-15T12:08:50;10.25;;;6.95;;
51664;SDS011;37751;52.408;12.536;2022-11-15T12:14:12;10.13;;;6.30;;
51664;SDS011;37751;52.408;12.536;2022-11-15T12:16:53;11.45;;;6.68;;
51664;SDS011;37751;52.408;12.536;2022-11-15T12:19:20;22.92;;;8.65;;
51664;SDS011;37751;52.408;12.536;2022-11-15T12:24:46;21.52;;;7.07;;
51664;SDS011;37751;52.408;12.536;2022-11-15T12:27:34;26.10;;;7.03;;
51664;SDS011;37751;52.408;12.536;2022-11-15T12:30:09;11.88;;;5.80;;
51664;SDS011;37751;52.408;12.536;2022-11-15T12:32:49;11.27;;;5.15;;
51664;SDS011;37751;52.408;12.536;2022-11-15T12:38:04;21.92;;;6.47;;
51664;SDS011;37751;52.408;12.536;2022-11-15T12:41:11;24.30;;;6.63;;
51664;SDS011;37751;52.408;12.536;2022-11-15T12:43:44;48.58;;;9.48;;
51664;SDS011;37751;52.408;12.536;2022-11-15T12:48:49;23.02;;;6.47;;
51664;SDS011;37751;52.408;12.536;2022-11-15T12:51:23;8.55;;;5.40;;
51664;SDS011;37751;52.408;12.536;2022-11-15T13:02:40;8.80;;;5.45;;
51664;SDS011;37751;52.408;12.536;2022-11-15T13:12:54;11.90;;;5.43;;
51664;SDS011;37751;52.408;12.536;2022-11-15T13:20:49;15.68;;;5.07;;
51664;SDS011;37751;52.408;12.536;2022-11-15T13:23:16;9.07;;;5.85;;
51664;SDS011;37751;52.408;12.536;2022-11-15T13:28:46;9.35;;;5.10;;
51664;SDS011;37751;52.408;12.536;2022-11-15T13:34:24;13.02;;;5.00;;
51664;SDS011;37751;52.408;12.536;2022-11-15T13:39:48;15.18;;;5.07;;
51664;SDS011;37751;52.408;12.536;2022-11-15T13:42:16;12.38;;;5.93;;
51664;SDS011;37751;52.408;12.536;2022-11-15T13:47:50;8.15;;;5.07;;
51664;SDS011;37751;52.408;12.536;2022-11-15T13:50:21;11.38;;;4.93;;
51664;SDS011;37751;52.408;12.536;2022-11-15T13:52:55;12.15;;;5.10;;
51664;SDS011;37751;52.408;12.536;2022-11-15T13:55:26;12.38;;;6.45;;
51664;SDS011;37751;52.408;12.536;2022-11-15T13:57:56;19.67;;;8.93;;
51664;SDS011;37751;52.408;12.536;2022-11-15T14:00:35;21.83;;;7.70;;
51664;SDS011;37751;52.408;12.536;2022-11-15T14:05:41;23.42;;;10.90;;
51664;SDS011;37751;52.408;12.536;2022-11-15T14:08:21;32.95;;;13.55;;
51664;SDS011;37751;52.408;12.536;2022-11-15T14:11:05;16.38;;;7.68;;
51664;SDS011;37751;52.408;12.536;2022-11-15T14:19:02;20.20;;;7.45;;
51664;SDS011;37751;52.408;12.536;2022-11-15T14:21:31;10.07;;;6.13;;
51664;SDS011;37751;52.408;12.536;2022-11-15T14:24:17;12.35;;;5.72;;
51664;SDS011;37751;52.408;12.536;2022-11-15T14:26:46;15.25;;;7.05;;
51664;SDS011;37751;52.408;12.536;2022-11-15T14:29:26;21.70;;;7.10;;
51664;SDS011;37751;52.408;12.536;2022-11-15T14:34:42;12.50;;;6.82;;
51664;SDS011;37751;52.408;12.536;2022-11-15T14:37:14;15.25;;;7.40;;
51664;SDS011;37751;52.408;12.536;2022-11-15T14:39:47;24.20;;;10.07;;
51664;SDS011;37751;52.408;12.536;2022-11-15T14:42:14;11.35;;;7.13;;
51664;SDS011;37751;52.408;12.536;2022-11-15T14:44:42;15.65;;;7.22;;
51664;SDS011;37751;52.408;12.536;2022-11-15T14:47:11;12.32;;;7.15;;
51664;SDS011;37751;52.408;12.536;2022-11-15T14:49:39;16.85;;;7.35;;
51664;SDS011;37751;52.408;12.536;2022-11-15T14:54:58;14.25;;;7.25;;
51664;SDS011;37751;52.408;12.536;2022-11-15T14:57:27;14.35;;;7.72;;
51664;SDS011;37751;52.408;12.536;2022-11-15T14:59:55;11.73;;;7.38;;
51664;SDS011;37751;52.408;12.536;2022-11-15T15:02:23;13.35;;;7.60;;
51664;SDS011;37751;52.408;12.536;2022-11-15T15:04:53;10.73;;;7.40;;
51664;SDS011;37751;52.408;12.536;2022-11-15T15:07:20;16.55;;;8.18;;
51664;SDS011;37751;52.408;12.536;2022-11-15T15:09:47;13.55;;;8.65;;
51664;SDS011;37751;52.408;12.536;2022-11-15T15:12:16;19.15;;;8.57;;
51664;SDS011;37751;52.408;12.536;2022-11-15T15:14:47;18.23;;;8.10;;
51664;SDS011;37751;52.408;12.536;2022-11-15T15:17:15;19.15;;;9.50;;
51664;SDS011;37751;52.408;12.536;2022-11-15T15:19:43;13.73;;;8.70;;
51664;SDS011;37751;52.408;12.536;2022-11-15T15:22:19;17.50;;;8.10;;
51664;SDS011;37751;52.408;12.536;2022-11-15T15:24:51;17.10;;;8.80;;
51664;SDS011;37751;52.408;12.536;2022-11-15T15:27:18;17.85;;;9.07;;
51664;SDS011;37751;52.408;12.536;2022-11-15T15:29:45;20.50;;;9.63;;
51664;SDS011;37751;52.408;12.536;2022-11-15T15:32:11;21.85;;;9.65;;
51664;SDS011;37751;52.408;12.536;2022-11-15T15:34:39;18.38;;;8.10;;
51664;SDS011;37751;52.408;12.536;2022-11-15T15:39:53;19.10;;;10.10;;
51664;SDS011;37751;52.408;12.536;2022-11-15T15:42:22;22.02;;;9.38;;
51664;SDS011;37751;52.408;12.536;2022-11-15T15:44:50;19.70;;;9.90;;
51664;SDS011;37751;52.408;12.536;2022-11-15T15:47:20;15.18;;;9.15;;
51664;SDS011;37751;52.408;12.536;2022-11-15T15:49:49;19.73;;;9.98;;
51664;SDS011;37751;52.408;12.536;2022-11-15T15:52:16;15.52;;;9.93;;
51664;SDS011;37751;52.408;12.536;2022-11-15T15:54:44;15.85;;;9.90;;
51664;SDS011;37751;52.408;12.536;2022-11-15T15:57:11;13.80;;;9.20;;
51664;SDS011;37751;52.408;12.536;2022-11-15T15:59:39;15.02;;;10.30;;
51664;SDS011;37751;52.408;12.536;2022-11-15T16:02:08;17.33;;;9.75;;
51664;SDS011;37751;52.408;12.536;2022-11-15T16:04:38;20.65;;;10.00;;
51664;SDS011;37751;52.408;12.536;2022-11-15T16:07:07;17.75;;;11.10;;
51664;SDS011;37751;52.408;12.536;2022-11-15T16:09:47;22.05;;;12.27;;
51664;SDS011;37751;52.408;12.536;2022-11-15T16:12:35;16.88;;;10.70;;
51664;SDS011;37751;52.408;12.536;2022-11-15T16:15:02;21.23;;;10.77;;
51664;SDS011;37751;52.408;12.536;2022-11-15T16:17:33;18.30;;;10.07;;
51664;SDS011;37751;52.408;12.536;2022-11-15T16:20:05;14.40;;;9.45;;
51664;SDS011;37751;52.408;12.536;2022-11-15T16:22:32;17.75;;;10.82;;
51664;SDS011;37751;52.408;12.536;2022-11-15T16:24:59;17.52;;;10.40;;
51664;SDS011;37751;52.408;12.536;2022-11-15T16:27:25;22.88;;;11.60;;
51664;SDS011;37751;52.408;12.536;2022-11-15T16:29:52;16.20;;;11.52;;
51664;SDS011;37751;52.408;12.536;2022-11-15T16:32:19;19.77;;;11.65;;
51664;SDS011;37751;52.408;12.536;2022-11-15T16:34:46;18.98;;;11.70;;
51664;SDS011;37751;52.408;12.536;2022-11-15T16:37:20;19.80;;;11.98;;
51664;SDS011;37751;52.408;12.536;2022-11-15T16:39:49;19.73;;;12.00;;
51664;SDS011;37751;52.408;12.536;2022-11-15T16:42:21;19.25;;;12.35;;
51664;SDS011;37751;52.408;12.536;2022-11-15T16:44:48;21.25;;;11.80;;
51664;SDS011;37751;52.408;12.536;2022-11-15T16:47:16;21.08;;;12.55;;
51664;SDS011;37751;52.408;12.536;2022-11-15T16:49:46;23.65;;;12.75;;
51664;SDS011;37751;52.408;12.536;2022-11-15T16:52:13;29.65;;;13.50;;
51664;SDS011;37751;52.408;12.536;2022-11-15T16:54:46;21.52;;;13.68;;
51664;SDS011;37751;52.408;12.536;2022-11-15T16:57:13;26.40;;;13.52;;
51664;SDS011;37751;52.408;12.536;2022-11-15T16:59:41;21.23;;;13.30;;
51664;SDS011;37751;52.408;12.536;2022-11-15T17:02:10;21.88;;;13.90;;
51664;SDS011;37751;52.408;12.536;2022-11-15T17:04:38;22.20;;;13.43;;
51664;SDS011;37751;52.408;12.536;2022-11-15T17:07:05;22.30;;;13.35;;
51664;SDS011;37751;52.408;12.536;2022-11-15T17:09:32;24.90;;;13.68;;
51664;SDS011;37751;52.408;12.536;2022-11-15T17:11:59;21.08;;;13.30;;
51664;SDS011;37751;52.408;12.536;2022-11-15T17:14:26;18.27;;;12.43;;
51664;SDS011;37751;52.408;12.536;2022-11-15T17:16:53;20.48;;;12.85;;
51664;SDS011;37751;52.408;12.536;2022-11-15T17:19:23;25.15;;;12.73;;
51664;SDS011;37751;52.408;12.536;2022-11-15T17:21:50;21.63;;;13.15;;
51664;SDS011;37751;52.408;12.536;2022-11-15T17:24:17;24.92;;;12.57;;
51664;SDS011;37751;52.408;12.536;2022-11-15T17:26:46;22.95;;;14.07;;
51664;SDS011;37751;52.408;12.536;2022-11-15T17:29:16;22.27;;;13.18;;
51664;SDS011;37751;52.408;12.536;2022-11-15T17:31:43;28.38;;;16.55;;
51664;SDS011;37751;52.408;12.536;2022-11-15T17:34:11;23.80;;;13.68;;
51664;SDS011;37751;52.408;12.536;2022-11-15T17:36:38;30.13;;;14.73;;
51664;SDS011;37751;52.408;12.536;2022-11-15T17:39:05;35.72;;;19.08;;
51664;SDS011;37751;52.408;12.536;2022-11-15T17:41:33;33.77;;;18.33;;
51664;SDS011;37751;52.408;12.536;2022-11-15T17:44:00;27.83;;;15.73;;
51664;SDS011;37751;52.408;12.536;2022-11-15T17:46:29;30.20;;;16.63;;
51664;SDS011;37751;52.408;12.536;2022-11-15T17:48:58;34.43;;;17.43;;
51664;SDS011;37751;52.408;12.536;2022-11-15T17:51:25;29.43;;;17.10;;
51664;SDS011;37751;52.408;12.536;2022-11-15T17:53:51;33.17;;;16.70;;
51664;SDS011;37751;52.408;12.536;2022-11-15T17:56:19;27.37;;;15.30;;
51664;SDS011;37751;52.408;12.536;2022-11-15T17:58:49;24.50;;;14.53;;
51664;SDS011;37751;52.408;12.536;2022-11-15T18:01:20;31.27;;;14.40;;
51664;SDS011;37751;52.408;12.536;2022-11-15T18:04:03;25.17;;;15.73;;